createdAt,value
2016-05-19T00:00:35.651Z,0
2016-05-19T00:01:35.840Z,0
2016-05-19T00:02:36.000Z,0
2016-05-19T00:03:35.971Z,0
2016-05-19T00:04:35.801Z,0
2016-05-19T00:05:55.211Z,0
2016-05-19T00:06:35.963Z,0
2016-05-19T00:07:35.981Z,0
2016-05-19T00:08:36.234Z,0
2016-05-19T00:09:35.987Z,0
2016-05-19T00:10:35.990Z,0
2016-05-19T00:11:35.961Z,0
2016-05-19T00:12:35.980Z,0
2016-05-19T00:13:35.826Z,0
2016-05-19T00:14:35.814Z,0
2016-05-19T00:15:55.175Z,0
2016-05-19T00:16:35.991Z,0
2016-05-19T00:17:35.978Z,0
2016-05-19T00:18:36.027Z,0
2016-05-19T00:19:35.983Z,0
2016-05-19T00:20:35.985Z,0
2016-05-19T00:21:35.863Z,0
2016-05-19T00:22:35.710Z,0
2016-05-19T00:23:49.196Z,0
2016-05-19T00:24:35.981Z,0
2016-05-19T00:25:35.983Z,0
2016-05-19T00:26:35.860Z,0
2016-05-19T00:27:36.004Z,0
2016-05-19T00:28:35.991Z,0
2016-05-19T00:29:35.854Z,0
2016-05-19T00:30:48.746Z,0
2016-05-19T00:31:35.687Z,0
2016-05-19T00:32:35.861Z,0
2016-05-19T00:33:35.692Z,0
2016-05-19T00:34:35.992Z,0
2016-05-19T00:35:35.870Z,0
2016-05-19T00:36:35.998Z,0
2016-05-19T00:37:36.000Z,0
2016-05-19T00:38:35.940Z,0
2016-05-19T00:39:36.037Z,0
2016-05-19T00:40:35.883Z,0
2016-05-19T00:41:35.995Z,0
2016-05-19T00:42:35.858Z,0
2016-05-19T00:43:36.031Z,0
2016-05-19T00:44:36.019Z,0
2016-05-19T00:45:35.850Z,0
2016-05-19T00:46:55.071Z,0
2016-05-19T00:47:35.871Z,0
2016-05-19T00:48:36.030Z,0
2016-05-19T00:49:35.844Z,0
2016-05-19T00:50:35.863Z,0
2016-05-19T00:51:35.850Z,0
2016-05-19T00:52:36.024Z,0
2016-05-19T00:53:35.746Z,0
2016-05-19T00:54:36.015Z,0
2016-05-19T00:55:36.002Z,0
2016-05-19T00:56:36.021Z,0
2016-05-19T00:57:36.023Z,0
2016-05-19T00:58:36.040Z,0
2016-05-19T00:59:35.872Z,0
2016-05-19T01:00:36.015Z,0
2016-05-19T01:01:36.001Z,0
2016-05-19T01:02:36.020Z,0
2016-05-19T01:03:35.867Z,0
2016-05-19T01:04:35.870Z,0
2016-05-19T01:05:36.029Z,0
2016-05-19T01:06:48.765Z,0
2016-05-19T01:07:36.018Z,0
2016-05-19T01:08:36.271Z,0
2016-05-19T01:09:36.023Z,0
2016-05-19T01:10:36.011Z,0
2016-05-19T01:11:35.872Z,0
2016-05-19T01:12:35.875Z,0
2016-05-19T01:13:36.034Z,0
2016-05-19T01:14:36.022Z,0
2016-05-19T01:15:35.899Z,0
2016-05-19T01:16:36.042Z,0
2016-05-19T01:17:55.077Z,0
2016-05-19T01:18:35.876Z,0
2016-05-19T01:19:36.035Z,0
2016-05-19T01:20:36.021Z,0
2016-05-19T01:21:36.041Z,0
2016-05-19T01:22:36.012Z,0
2016-05-19T01:23:36.343Z,0
2016-05-19T01:24:36.048Z,0
2016-05-19T01:25:35.738Z,0
2016-05-19T01:26:35.882Z,0
2016-05-19T01:27:36.025Z,0
2016-05-19T01:28:55.231Z,0
2016-05-19T01:29:48.749Z,0
2016-05-19T01:30:36.033Z,0
2016-05-19T01:32:01.692Z,0
2016-05-19T01:32:35.913Z,0
2016-05-19T01:33:35.901Z,0
2016-05-19T01:34:36.028Z,0
2016-05-19T01:35:36.015Z,0
2016-05-19T01:36:36.049Z,0
2016-05-19T01:37:36.067Z,0
2016-05-19T01:38:36.555Z,0
2016-05-19T01:39:35.885Z,0
2016-05-19T01:40:48.497Z,0
2016-05-19T01:41:35.562Z,0
2016-05-19T01:42:35.909Z,0
2016-05-19T01:43:36.037Z,0
2016-05-19T01:44:35.915Z,0
2016-05-19T01:45:36.058Z,0
2016-05-19T01:46:35.748Z,0
2016-05-19T01:47:36.078Z,0
2016-05-19T01:48:36.050Z,0
2016-05-19T01:49:36.053Z,0
2016-05-19T01:50:54.962Z,0
2016-05-19T01:51:36.043Z,0
2016-05-19T01:52:36.061Z,0
2016-05-19T01:53:36.267Z,0
2016-05-19T01:54:35.894Z,0
2016-05-19T01:55:36.054Z,0
2016-05-19T01:56:35.885Z,0
2016-05-19T01:57:36.043Z,0
2016-05-19T01:58:36.062Z,0
2016-05-19T01:59:35.877Z,0
2016-05-19T02:00:35.895Z,0
2016-05-19T02:01:48.788Z,0
2016-05-19T02:02:36.040Z,0
2016-05-19T02:03:36.043Z,0
2016-05-19T02:04:36.079Z,0
2016-05-19T02:05:35.737Z,0
2016-05-19T02:06:36.114Z,0
2016-05-19T02:07:36.070Z,0
2016-05-19T02:08:35.917Z,0
2016-05-19T02:09:36.045Z,0
2016-05-19T02:10:36.032Z,0
2016-05-19T02:11:36.034Z,0
2016-05-19T02:12:36.084Z,0
2016-05-19T02:13:36.040Z,0
2016-05-19T02:14:36.042Z,0
2016-05-19T02:15:36.029Z,0
2016-05-19T02:16:36.047Z,0
2016-05-19T02:17:35.909Z,0
2016-05-19T02:18:55.256Z,0
2016-05-19T02:19:36.055Z,0
2016-05-19T02:20:36.027Z,0
2016-05-19T02:21:55.264Z,0
2016-05-19T02:22:36.047Z,0
2016-05-19T02:23:36.207Z,0
2016-05-19T02:24:36.061Z,0
2016-05-19T02:25:36.033Z,0
2016-05-19T02:26:36.051Z,0
2016-05-19T02:27:36.054Z,0
2016-05-19T02:28:36.057Z,0
2016-05-19T02:29:35.888Z,0
2016-05-19T02:30:35.890Z,0
2016-05-19T02:31:55.111Z,0
2016-05-19T02:32:36.051Z,0
2016-05-19T02:33:35.898Z,0
2016-05-19T02:34:35.885Z,0
2016-05-19T02:35:36.060Z,0
2016-05-19T02:36:35.921Z,0
2016-05-19T02:37:36.081Z,0
2016-05-19T02:38:48.834Z,0
2016-05-19T02:39:36.070Z,0
2016-05-19T02:40:36.101Z,0
2016-05-19T02:41:36.131Z,0
2016-05-19T02:42:36.177Z,0
2016-05-19T02:43:36.193Z,0
2016-05-19T02:44:36.270Z,0
2016-05-19T02:45:36.141Z,0
2016-05-19T02:46:36.285Z,0
2016-05-19T02:47:36.318Z,0
2016-05-19T02:48:36.368Z,0
2016-05-19T02:49:36.355Z,0
2016-05-19T02:50:36.366Z,0
2016-05-19T02:51:49.109Z,0
2016-05-19T02:52:36.290Z,0
2016-05-19T02:53:36.688Z,0
2016-05-19T02:54:36.243Z,0
2016-05-19T02:55:36.390Z,0
2016-05-19T02:56:36.379Z,0
2016-05-19T02:57:36.415Z,0
2016-05-19T02:58:36.404Z,0
2016-05-19T02:59:36.440Z,0
2016-05-19T03:00:36.241Z,0
2016-05-19T03:01:36.385Z,0
2016-05-19T03:02:55.638Z,0
2016-05-19T03:03:36.267Z,0
2016-05-19T03:04:36.410Z,0
2016-05-19T03:05:36.399Z,0
2016-05-19T03:06:36.402Z,0
2016-05-19T03:07:36.419Z,0
2016-05-19T03:08:36.252Z,0
2016-05-19T03:09:36.394Z,0
2016-05-19T03:10:36.428Z,0
2016-05-19T03:11:36.400Z,0
2016-05-19T03:12:36.419Z,0
2016-05-19T03:13:55.453Z,0
2016-05-19T03:14:36.425Z,0
2016-05-19T03:15:36.396Z,0
2016-05-19T03:16:36.414Z,0
2016-05-19T03:17:36.417Z,0
2016-05-19T03:18:36.388Z,0
2016-05-19T03:19:36.407Z,0
2016-05-19T03:20:36.394Z,0
2016-05-19T03:21:36.287Z,0
2016-05-19T03:22:36.258Z,0
2016-05-19T03:23:36.432Z,0
2016-05-19T03:24:36.420Z,0
2016-05-19T03:25:36.251Z,0
2016-05-19T03:26:36.237Z,0
2016-05-19T03:27:36.443Z,0
2016-05-19T03:28:36.243Z,0
2016-05-19T03:29:36.449Z,0
2016-05-19T03:30:36.404Z,0
2016-05-19T03:31:36.407Z,0
2016-05-19T03:32:36.410Z,0
2016-05-19T03:33:36.413Z,0
2016-05-19T03:34:36.432Z,0
2016-05-19T03:35:36.434Z,0
2016-05-19T03:36:36.437Z,0
2016-05-19T03:37:36.408Z,0
2016-05-19T03:38:36.144Z,0
2016-05-19T03:39:36.429Z,0
2016-05-19T03:40:36.431Z,0
2016-05-19T03:41:36.434Z,0
2016-05-19T03:42:36.421Z,0
2016-05-19T03:43:36.439Z,0
2016-05-19T03:44:36.255Z,0
2016-05-19T03:45:36.429Z,0
2016-05-19T03:46:36.463Z,0
2016-05-19T03:47:36.466Z,0
2016-05-19T03:48:55.641Z,0
2016-05-19T03:49:36.425Z,5
2016-05-19T03:50:36.255Z,5
2016-05-19T03:51:36.446Z,5
2016-05-19T03:52:36.308Z,5
2016-05-19T03:53:36.420Z,5
2016-05-19T03:54:36.422Z,5
2016-05-19T03:55:42.707Z,5
2016-05-19T03:56:36.271Z,5
2016-05-19T03:57:36.430Z,5
2016-05-19T03:58:36.418Z,5
2016-05-19T03:59:36.435Z,5
2016-05-19T04:00:36.267Z,5
2016-05-19T04:01:36.128Z,5
2016-05-19T04:02:36.303Z,5
2016-05-19T04:03:36.431Z,10
2016-05-19T04:04:36.434Z,10
2016-05-19T04:05:55.623Z,10
2016-05-19T04:06:36.142Z,10
2016-05-19T04:07:36.426Z,10
2016-05-19T04:08:36.789Z,10
2016-05-19T04:09:36.432Z,15
2016-05-19T04:10:36.450Z,15
2016-05-19T04:11:49.172Z,15
2016-05-19T04:12:36.268Z,15
2016-05-19T04:13:36.411Z,20
2016-05-19T04:14:36.132Z,20
2016-05-19T04:15:36.432Z,20
2016-05-19T04:16:36.435Z,25
2016-05-19T04:17:36.422Z,25
2016-05-19T04:18:36.268Z,25
2016-05-19T04:19:36.443Z,30
2016-05-19T04:20:36.445Z,30
2016-05-19T04:21:36.432Z,30
2016-05-19T04:22:36.435Z,35
2016-05-19T04:23:36.407Z,35
2016-05-19T04:24:36.128Z,35
2016-05-19T04:25:36.287Z,35
2016-05-19T04:26:36.133Z,35
2016-05-19T04:27:36.449Z,35
2016-05-19T04:28:36.280Z,35
2016-05-19T04:29:36.423Z,35
2016-05-19T04:30:36.426Z,35
2016-05-19T04:31:36.460Z,35
2016-05-19T04:32:49.181Z,35
2016-05-19T04:33:36.434Z,35
2016-05-19T04:34:36.264Z,35
2016-05-19T04:35:36.470Z,30
2016-05-19T04:36:36.457Z,30
2016-05-19T04:37:36.444Z,30
2016-05-19T04:38:36.682Z,30
2016-05-19T04:39:36.606Z,25
2016-05-19T04:40:36.467Z,30
2016-05-19T04:41:36.440Z,30
2016-05-19T04:42:36.317Z,30
2016-05-19T04:43:36.304Z,30
2016-05-19T04:44:36.431Z,30
2016-05-19T04:45:49.169Z,30
2016-05-19T04:46:36.296Z,30
2016-05-19T04:47:36.315Z,30
2016-05-19T04:48:36.458Z,30
2016-05-19T04:49:36.445Z,30
2016-05-19T04:50:36.433Z,30
2016-05-19T04:51:49.200Z,30
2016-05-19T04:52:36.453Z,30
2016-05-19T04:54:02.143Z,30
2016-05-19T04:54:36.459Z,30
2016-05-19T04:55:36.461Z,30
2016-05-19T04:56:36.307Z,30
2016-05-19T04:57:36.483Z,35
2016-05-19T04:58:36.454Z,35
2016-05-19T04:59:36.441Z,35
2016-05-19T05:00:36.444Z,35
2016-05-19T05:01:36.306Z,35
2016-05-19T05:02:36.293Z,35
2016-05-19T05:03:36.467Z,35
2016-05-19T05:04:48.876Z,35
2016-05-19T05:05:36.270Z,35
2016-05-19T05:06:36.460Z,35
2016-05-19T05:07:36.462Z,35
2016-05-19T05:08:36.918Z,40
2016-05-19T05:09:36.453Z,40
2016-05-19T05:10:36.330Z,45
2016-05-19T05:11:36.458Z,45
2016-05-19T05:12:36.320Z,45
2016-05-19T05:13:36.307Z,50
2016-05-19T05:14:36.309Z,55
2016-05-19T05:15:36.125Z,60
2016-05-19T05:16:49.050Z,60
2016-05-19T05:17:36.474Z,65
2016-05-19T05:18:36.477Z,65
2016-05-19T05:19:36.292Z,65
2016-05-19T05:20:49.216Z,70
2016-05-19T05:21:36.547Z,70
2016-05-19T05:22:36.299Z,70
2016-05-19T05:23:36.552Z,70
2016-05-19T05:24:36.494Z,70
2016-05-19T05:25:36.496Z,70
2016-05-19T05:26:36.482Z,65
2016-05-19T05:27:36.469Z,65
2016-05-19T05:28:36.472Z,65
2016-05-19T05:29:36.491Z,65
2016-05-19T05:30:36.321Z,65
2016-05-19T05:31:36.465Z,65
2016-05-19T05:32:36.483Z,65
2016-05-19T05:33:49.204Z,65
2016-05-19T05:34:36.316Z,65
2016-05-19T05:35:36.335Z,65
2016-05-19T05:36:36.321Z,65
2016-05-19T05:37:36.465Z,65
2016-05-19T05:38:36.343Z,65
2016-05-19T05:39:36.471Z,65
2016-05-19T05:40:36.317Z,65
2016-05-19T05:41:36.164Z,65
2016-05-19T05:42:49.198Z,60
2016-05-19T05:43:36.498Z,60
2016-05-19T05:44:36.515Z,60
2016-05-19T05:45:36.346Z,60
2016-05-19T05:46:36.473Z,60
2016-05-19T05:47:36.336Z,60
2016-05-19T05:48:36.478Z,65
2016-05-19T05:49:36.467Z,75
2016-05-19T05:50:36.484Z,85
2016-05-19T05:51:36.487Z,90
2016-05-19T05:52:49.069Z,90
2016-05-19T05:53:36.946Z,95
2016-05-19T05:54:36.214Z,100
2016-05-19T05:55:36.327Z,105
2016-05-19T05:56:36.500Z,110
2016-05-19T05:57:36.347Z,120
2016-05-19T05:58:36.537Z,125
2016-05-19T05:59:36.321Z,125
2016-05-19T06:00:36.168Z,125
2016-05-19T06:01:49.218Z,120
2016-05-19T06:02:36.361Z,115
2016-05-19T06:03:36.504Z,105
2016-05-19T06:04:36.351Z,105
2016-05-19T06:05:36.479Z,100
2016-05-19T06:06:36.496Z,100
2016-05-19T06:07:36.499Z,95
2016-05-19T06:08:35.939Z,90
2016-05-19T06:09:36.207Z,90
2016-05-19T06:10:36.335Z,85
2016-05-19T06:11:36.509Z,80
2016-05-19T06:12:36.528Z,80
2016-05-19T06:13:36.500Z,85
2016-05-19T06:14:36.518Z,90
2016-05-19T06:15:36.521Z,90
2016-05-19T06:16:36.508Z,85
2016-05-19T06:17:36.557Z,80
2016-05-19T06:18:36.356Z,70
2016-05-19T06:19:36.516Z,65
2016-05-19T06:20:49.268Z,65
2016-05-19T06:21:36.490Z,60
2016-05-19T06:22:40.617Z,60
2016-05-19T06:23:36.198Z,60
2016-05-19T06:24:36.530Z,60
2016-05-19T06:25:36.517Z,60
2016-05-19T06:26:36.503Z,60
2016-05-19T06:27:36.380Z,65
2016-05-19T06:28:49.118Z,65
2016-05-19T06:29:36.527Z,65
2016-05-19T06:30:36.357Z,60
2016-05-19T06:31:36.361Z,60
2016-05-19T06:32:36.363Z,60
2016-05-19T06:33:36.522Z,65
2016-05-19T06:34:36.541Z,65
2016-05-19T06:35:36.512Z,65
2016-05-19T06:36:36.358Z,65
2016-05-19T06:37:55.735Z,70
2016-05-19T06:38:36.926Z,75
2016-05-19T06:39:36.382Z,80
2016-05-19T06:40:36.369Z,85
2016-05-19T06:41:36.231Z,90
2016-05-19T06:42:36.562Z,95
2016-05-19T06:43:36.534Z,105
2016-05-19T06:44:36.052Z,115
2016-05-19T06:45:36.367Z,125
2016-05-19T06:46:36.557Z,135
2016-05-19T06:47:36.560Z,140
2016-05-19T06:48:36.547Z,150
2016-05-19T06:49:36.533Z,155
2016-05-19T06:50:36.380Z,160
2016-05-19T06:51:42.805Z,150
2016-05-19T06:52:36.573Z,140
2016-05-19T06:53:36.889Z,140
2016-05-19T06:54:36.531Z,140
2016-05-19T06:55:36.238Z,145
2016-05-19T06:56:49.319Z,145
2016-05-19T06:57:36.400Z,145
2016-05-19T06:58:36.541Z,140
2016-05-19T06:59:36.561Z,140
2016-05-19T07:00:36.282Z,135
2016-05-19T07:01:36.379Z,135
2016-05-19T07:02:36.568Z,135
2016-05-19T07:03:36.399Z,130
2016-05-19T07:05:27.090Z,135
2016-05-19T07:05:39.718Z,135
2016-05-19T07:06:39.720Z,130
2016-05-19T07:07:39.754Z,125
2016-05-19T07:08:39.882Z,120
2016-05-19T07:09:39.759Z,110
2016-05-19T07:10:39.731Z,105
2016-05-19T07:11:52.343Z,100
2016-05-19T07:12:39.751Z,95
2016-05-19T07:13:39.442Z,95
2016-05-19T07:14:39.773Z,90
2016-05-19T07:15:39.619Z,90
2016-05-19T07:16:39.762Z,85
2016-05-19T07:17:39.437Z,85
2016-05-19T07:18:39.753Z,90
2016-05-19T07:19:52.505Z,95
2016-05-19T07:20:39.773Z,100
2016-05-19T07:21:39.761Z,105
2016-05-19T07:22:39.763Z,110
2016-05-19T07:23:39.938Z,115
2016-05-19T07:24:39.769Z,125
2016-05-19T07:25:39.819Z,130
2016-05-19T07:26:52.508Z,135
2016-05-19T07:27:39.667Z,135
2016-05-19T07:28:39.764Z,135
2016-05-19T07:29:39.783Z,135
2016-05-19T07:30:39.675Z,140
2016-05-19T07:31:39.631Z,150
2016-05-19T07:32:39.805Z,160
2016-05-19T07:33:39.605Z,165
2016-05-19T07:34:39.843Z,170
2016-05-19T07:35:39.642Z,165
2016-05-19T07:36:52.363Z,160
2016-05-19T07:37:39.632Z,160
2016-05-19T07:38:39.931Z,155
2016-05-19T07:39:39.809Z,160
2016-05-19T07:40:39.874Z,175
2016-05-19T07:41:39.626Z,190
2016-05-19T07:42:52.395Z,195
2016-05-19T07:43:39.788Z,200
2016-05-19T07:44:39.806Z,210
2016-05-19T07:45:39.482Z,215
2016-05-19T07:46:39.796Z,220
2016-05-19T07:47:39.845Z,230
2016-05-19T07:48:39.646Z,235
2016-05-19T07:49:39.790Z,240
2016-05-19T07:50:39.776Z,245
2016-05-19T07:51:39.810Z,245
2016-05-19T07:52:39.656Z,250
2016-05-19T07:53:40.190Z,255
2016-05-19T07:54:52.536Z,250
2016-05-19T07:55:39.836Z,245
2016-05-19T07:56:39.839Z,235
2016-05-19T07:57:39.795Z,230
2016-05-19T07:58:39.844Z,225
2016-05-19T07:59:39.863Z,220
2016-05-19T08:00:39.553Z,220
2016-05-19T08:01:39.852Z,205
2016-05-19T08:02:39.699Z,200
2016-05-19T08:03:39.701Z,195
2016-05-19T08:04:39.688Z,185
2016-05-19T08:05:39.847Z,180
2016-05-19T08:06:52.554Z,175
2016-05-19T08:07:39.728Z,170
2016-05-19T08:08:40.138Z,170
2016-05-19T08:09:39.890Z,170
2016-05-19T08:10:39.861Z,170
2016-05-19T08:11:39.692Z,175
2016-05-19T08:12:39.851Z,175
2016-05-19T08:13:39.869Z,180
2016-05-19T08:14:39.856Z,180
2016-05-19T08:15:52.593Z,185
2016-05-19T08:16:39.690Z,185
2016-05-19T08:17:39.880Z,180
2016-05-19T08:18:39.851Z,180
2016-05-19T08:19:39.885Z,185
2016-05-19T08:20:39.872Z,205
2016-05-19T08:21:39.875Z,220
2016-05-19T08:22:39.706Z,230
2016-05-19T08:23:39.911Z,235
2016-05-19T08:24:39.727Z,240
2016-05-19T08:25:39.744Z,250
2016-05-19T08:26:39.857Z,255
2016-05-19T08:27:39.891Z,255
2016-05-19T08:28:39.566Z,255
2016-05-19T08:29:52.600Z,260
2016-05-19T08:30:39.743Z,265
2016-05-19T08:31:39.902Z,265
2016-05-19T08:32:39.608Z,270
2016-05-19T08:33:39.891Z,275
2016-05-19T08:34:39.739Z,275
2016-05-19T08:35:39.600Z,280
2016-05-19T08:36:39.916Z,285
2016-05-19T08:37:39.918Z,285
2016-05-19T08:38:39.733Z,285
2016-05-19T08:39:39.735Z,290
2016-05-19T08:40:52.520Z,295
2016-05-19T08:41:39.929Z,305
2016-05-19T08:42:39.947Z,310
2016-05-19T08:43:39.919Z,320
2016-05-19T08:44:39.765Z,330
2016-05-19T08:45:39.768Z,345
2016-05-19T08:46:39.770Z,360
2016-05-19T08:47:39.960Z,355
2016-05-19T08:48:39.791Z,350
2016-05-19T08:49:39.950Z,340
2016-05-19T08:50:39.953Z,335
2016-05-19T08:51:39.768Z,330
2016-05-19T08:52:39.989Z,330
2016-05-19T08:53:40.570Z,325
2016-05-19T08:54:39.979Z,320
2016-05-19T08:55:39.748Z,315
2016-05-19T08:56:40.219Z,315
2016-05-19T08:57:40.050Z,310
2016-05-19T08:58:39.864Z,305
2016-05-19T08:59:39.711Z,310
2016-05-19T09:00:40.027Z,310
2016-05-19T09:01:40.014Z,310
2016-05-19T09:02:40.033Z,310
2016-05-19T09:03:40.035Z,320
2016-05-19T09:04:40.038Z,335
2016-05-19T09:05:40.041Z,350
2016-05-19T09:06:40.058Z,360
2016-05-19T09:07:39.904Z,355
2016-05-19T09:08:39.766Z,355
2016-05-19T09:09:52.629Z,355
2016-05-19T09:10:39.913Z,360
2016-05-19T09:11:40.056Z,350
2016-05-19T09:12:39.935Z,350
2016-05-19T09:13:40.062Z,345
2016-05-19T09:14:40.048Z,340
2016-05-19T09:15:52.646Z,325
2016-05-19T09:16:40.070Z,315
2016-05-19T09:17:39.948Z,300
2016-05-19T09:18:40.075Z,295
2016-05-19T09:19:40.079Z,285
2016-05-19T09:20:40.081Z,280
2016-05-19T09:21:40.098Z,290
2016-05-19T09:22:39.976Z,295
2016-05-19T09:23:40.339Z,310
2016-05-19T09:24:40.201Z,325
2016-05-19T09:25:39.984Z,340
2016-05-19T09:26:39.956Z,365
2016-05-19T09:27:40.130Z,385
2016-05-19T09:28:40.102Z,400
2016-05-19T09:29:40.105Z,410
2016-05-19T09:30:39.983Z,420
2016-05-19T09:31:40.111Z,425
2016-05-19T09:32:40.144Z,420
2016-05-19T09:33:40.116Z,405
2016-05-19T09:34:40.118Z,390
2016-05-19T09:35:40.152Z,380
2016-05-19T09:36:40.154Z,365
2016-05-19T09:37:52.720Z,330
2016-05-19T09:38:40.036Z,315
2016-05-19T09:39:40.005Z,310
2016-05-19T09:40:40.150Z,300
2016-05-19T09:41:40.152Z,295
2016-05-19T09:42:39.996Z,285
2016-05-19T09:43:40.174Z,270
2016-05-19T09:44:40.018Z,265
2016-05-19T09:45:40.192Z,265
2016-05-19T09:46:53.026Z,265
2016-05-19T09:47:40.198Z,265
2016-05-19T09:48:40.169Z,265
2016-05-19T09:49:40.203Z,265
2016-05-19T09:50:40.174Z,260
2016-05-19T09:51:40.037Z,255
2016-05-19T09:52:40.242Z,250
2016-05-19T09:53:40.448Z,250
2016-05-19T09:54:40.060Z,240
2016-05-19T09:55:40.203Z,235
2016-05-19T09:56:40.050Z,235
2016-05-19T09:57:40.068Z,230
2016-05-19T09:58:40.070Z,220
2016-05-19T09:59:40.245Z,215
2016-05-19T10:00:40.248Z,210
2016-05-19T10:01:39.906Z,205
2016-05-19T10:02:40.081Z,200
2016-05-19T10:03:40.241Z,195
2016-05-19T10:04:52.964Z,190
2016-05-19T10:05:40.089Z,185
2016-05-19T10:06:39.936Z,180
2016-05-19T10:07:40.252Z,180
2016-05-19T10:08:41.458Z,180
2016-05-19T10:09:52.822Z,185
2016-05-19T10:10:46.574Z,185
2016-05-19T10:11:40.012Z,190
2016-05-19T10:12:39.952Z,200
2016-05-19T10:13:40.330Z,215
2016-05-19T10:14:40.177Z,230
2016-05-19T10:15:40.257Z,240
2016-05-19T10:16:40.276Z,245
2016-05-19T10:17:52.999Z,255
2016-05-19T10:18:40.281Z,265
2016-05-19T10:19:40.284Z,285
2016-05-19T10:20:40.271Z,300
2016-05-19T10:21:40.290Z,335
2016-05-19T10:22:40.292Z,350
2016-05-19T10:23:40.341Z,360
2016-05-19T10:24:40.281Z,370
2016-05-19T10:25:40.159Z,375
2016-05-19T10:26:40.287Z,390
2016-05-19T10:27:40.306Z,410
2016-05-19T10:28:40.292Z,435
2016-05-19T10:29:40.295Z,435
2016-05-19T10:30:40.298Z,440
2016-05-19T10:31:53.053Z,445
2016-05-19T10:32:40.334Z,440
2016-05-19T10:33:40.337Z,440
2016-05-19T10:34:40.325Z,440
2016-05-19T10:35:40.342Z,440
2016-05-19T10:36:40.330Z,435
2016-05-19T10:37:40.332Z,435
2016-05-19T10:38:40.038Z,430
2016-05-19T10:39:40.166Z,430
2016-05-19T10:40:40.325Z,430
2016-05-19T10:41:40.343Z,435
2016-05-19T10:42:40.174Z,435
2016-05-19T10:43:42.177Z,445
2016-05-19T10:44:40.366Z,440
2016-05-19T10:45:40.197Z,440
2016-05-19T10:46:40.200Z,450
2016-05-19T10:47:40.219Z,465
2016-05-19T10:48:40.205Z,455
2016-05-19T10:49:40.365Z,445
2016-05-19T10:50:40.070Z,445
2016-05-19T10:51:52.951Z,435
2016-05-19T10:52:40.388Z,430
2016-05-19T10:53:40.516Z,420
2016-05-19T10:54:40.378Z,415
2016-05-19T10:55:40.084Z,395
2016-05-19T10:56:40.087Z,380
2016-05-19T10:57:40.104Z,365
2016-05-19T10:58:40.263Z,355
2016-05-19T10:59:40.392Z,345
2016-05-19T11:00:40.395Z,330
2016-05-19T11:01:53.150Z,325
2016-05-19T11:02:40.321Z,320
2016-05-19T11:03:40.511Z,310
2016-05-19T11:04:40.280Z,305
2016-05-19T11:05:40.422Z,295
2016-05-19T11:06:40.425Z,280
2016-05-19T11:07:40.459Z,275
2016-05-19T11:08:40.869Z,265
2016-05-19T11:09:40.309Z,265
2016-05-19T11:10:40.452Z,260
2016-05-19T11:11:53.019Z,245
2016-05-19T11:12:40.316Z,230
2016-05-19T11:13:40.320Z,200
2016-05-19T11:14:40.291Z,180
2016-05-19T11:15:40.310Z,175
2016-05-19T11:16:40.468Z,170
2016-05-19T11:17:40.315Z,175
2016-05-19T11:18:41.254Z,185
2016-05-19T11:19:40.320Z,200
2016-05-19T11:20:40.510Z,225
2016-05-19T11:21:40.466Z,240
2016-05-19T11:22:40.328Z,260
2016-05-19T11:23:42.534Z,265
2016-05-19T11:24:40.505Z,265
2016-05-19T11:25:40.508Z,270
2016-05-19T11:26:40.510Z,275
2016-05-19T11:27:40.513Z,275
2016-05-19T11:28:42.391Z,280
2016-05-19T11:29:40.519Z,290
2016-05-19T11:30:40.365Z,290
2016-05-19T11:31:53.136Z,295
2016-05-19T11:32:40.542Z,300
2016-05-19T11:33:42.967Z,300
2016-05-19T11:34:40.672Z,305
2016-05-19T11:35:40.222Z,305
2016-05-19T11:36:40.537Z,300
2016-05-19T11:37:40.540Z,300
2016-05-19T11:38:41.839Z,295
2016-05-19T11:39:40.967Z,295
2016-05-19T11:40:40.547Z,290
2016-05-19T11:41:40.550Z,290
2016-05-19T11:42:40.398Z,295
2016-05-19T11:43:40.400Z,310
2016-05-19T11:44:40.387Z,325
2016-05-19T11:45:53.299Z,350
2016-05-19T11:46:40.408Z,360
2016-05-19T11:47:40.277Z,380
2016-05-19T11:48:40.632Z,390
2016-05-19T11:49:40.550Z,405
2016-05-19T11:50:40.594Z,425
2016-05-19T11:51:40.683Z,430
2016-05-19T11:52:40.640Z,430
2016-05-19T11:53:40.673Z,435
2016-05-19T11:54:41.096Z,435
2016-05-19T11:55:40.707Z,455
2016-05-19T11:56:40.864Z,455
2016-05-19T11:57:40.873Z,450
2016-05-19T11:58:40.585Z,465
2016-05-19T11:59:40.889Z,465
2016-05-19T12:00:40.742Z,455
2016-05-19T12:01:40.750Z,445
2016-05-19T12:02:40.896Z,445
2016-05-19T12:03:40.947Z,440
2016-05-19T12:04:40.935Z,420
2016-05-19T12:05:40.924Z,435
2016-05-19T12:06:40.929Z,435
2016-05-19T12:07:40.948Z,415
2016-05-19T12:08:53.721Z,415
2016-05-19T12:09:40.799Z,405
2016-05-19T12:10:40.958Z,410
2016-05-19T12:11:41.196Z,400
2016-05-19T12:12:40.840Z,395
2016-05-19T12:13:40.999Z,390
2016-05-19T12:14:41.190Z,385
2016-05-19T12:15:41.052Z,385
2016-05-19T12:16:41.025Z,385
2016-05-19T12:18:00.186Z,380
2016-05-19T12:18:40.999Z,370
2016-05-19T12:19:41.002Z,370
2016-05-19T12:20:40.863Z,370
2016-05-19T12:21:41.021Z,370
2016-05-19T12:22:41.040Z,370
2016-05-19T12:23:41.012Z,375
2016-05-19T12:24:41.077Z,390
2016-05-19T12:25:41.032Z,385
2016-05-19T12:26:41.035Z,365
2016-05-19T12:27:41.038Z,375
2016-05-19T12:28:41.041Z,365
2016-05-19T12:29:41.043Z,390
2016-05-19T12:30:40.890Z,400
2016-05-19T12:31:40.909Z,395
2016-05-19T12:32:41.084Z,395
2016-05-19T12:33:41.054Z,405
2016-05-19T12:34:41.089Z,415
2016-05-19T12:35:40.934Z,395
2016-05-19T12:36:40.953Z,390
2016-05-19T12:37:40.972Z,380
2016-05-19T12:38:43.584Z,370
2016-05-19T12:39:41.320Z,350
2016-05-19T12:40:41.136Z,330
2016-05-19T12:41:53.845Z,300
2016-05-19T12:42:41.095Z,280
2016-05-19T12:43:40.956Z,265
2016-05-19T12:44:40.944Z,260
2016-05-19T12:45:41.118Z,265
2016-05-19T12:46:41.136Z,270
2016-05-19T12:47:40.967Z,270
2016-05-19T12:48:41.110Z,280
2016-05-19T12:49:53.866Z,285
2016-05-19T12:50:40.975Z,300
2016-05-19T12:51:41.135Z,330
2016-05-19T12:52:40.808Z,350
2016-05-19T12:53:42.358Z,370
2016-05-19T12:54:41.314Z,390
2016-05-19T12:55:40.973Z,400
2016-05-19T12:56:41.163Z,400
2016-05-19T12:57:41.213Z,400
2016-05-19T12:58:41.168Z,395
2016-05-19T12:59:41.172Z,395
2016-05-19T13:00:41.174Z,405
2016-05-19T13:01:41.193Z,395
2016-05-19T13:03:00.385Z,400
2016-05-19T13:03:42.026Z,395
2016-05-19T13:04:41.215Z,400
2016-05-19T13:05:41.218Z,410
2016-05-19T13:06:53.928Z,425
2016-05-19T13:07:53.931Z,405
2016-05-19T13:08:40.790Z,395
2016-05-19T13:09:42.495Z,390
2016-05-19T13:10:41.045Z,390
2016-05-19T13:11:40.906Z,390
2016-05-19T13:12:41.097Z,395
2016-05-19T13:13:42.569Z,395
2016-05-19T13:14:41.259Z,360
2016-05-19T13:15:41.089Z,355
2016-05-19T13:16:41.263Z,365
2016-05-19T13:17:41.250Z,385
2016-05-19T13:19:00.460Z,380
2016-05-19T13:19:41.272Z,390
2016-05-19T13:20:41.259Z,395
2016-05-19T13:21:41.277Z,400
2016-05-19T13:22:41.139Z,395
2016-05-19T13:23:41.346Z,395
2016-05-19T13:24:41.816Z,390
2016-05-19T13:25:54.025Z,385
2016-05-19T13:26:41.135Z,380
2016-05-19T13:27:41.185Z,370
2016-05-19T13:28:43.672Z,365
2016-05-19T13:29:40.986Z,360
2016-05-19T13:30:41.176Z,350
2016-05-19T13:31:41.148Z,325
2016-05-19T13:32:41.182Z,310
2016-05-19T13:33:41.622Z,300
2016-05-19T13:34:41.187Z,290
2016-05-19T13:35:41.362Z,285
2016-05-19T13:36:41.349Z,290
2016-05-19T13:37:41.336Z,290
2016-05-19T13:38:45.620Z,295
2016-05-19T13:39:41.529Z,305
2016-05-19T13:40:41.359Z,310
2016-05-19T13:41:41.378Z,325
2016-05-19T13:42:41.381Z,345
2016-05-19T13:43:42.118Z,360
2016-05-19T13:44:41.214Z,380
2016-05-19T13:45:41.389Z,385
2016-05-19T13:46:41.220Z,390
2016-05-19T13:47:41.206Z,390
2016-05-19T13:48:42.850Z,390
2016-05-19T13:49:41.228Z,385
2016-05-19T13:50:41.418Z,385
2016-05-19T13:51:41.421Z,385
2016-05-19T13:52:41.392Z,385
2016-05-19T13:53:41.301Z,380
2016-05-19T13:55:34.947Z,375
2016-05-19T13:55:49.103Z,375
2016-05-19T13:56:47.527Z,370
2016-05-19T13:57:47.358Z,370
2016-05-19T13:58:49.861Z,365
2016-05-19T13:59:47.692Z,355
2016-05-19T14:00:47.554Z,370
2016-05-19T14:01:47.712Z,360
2016-05-19T14:02:47.404Z,355
2016-05-19T14:03:47.562Z,360
2016-05-19T14:04:47.565Z,355
2016-05-19T14:05:47.568Z,350
2016-05-19T14:06:47.554Z,340
2016-05-19T14:07:47.745Z,340
2016-05-19T14:08:47.887Z,335